sensor_id;sensor_type;location;lat;lon;timestamp;P1;durP1;ratioP1;P2;durP2;ratioP2
16612;SDS011;8419;52.358;9.752;2023-05-10T00:01:21;5.95;;;2.62;;
16612;SDS011;8419;52.358;9.752;2023-05-10T00:04:06;2.00;;;1.75;;
16612;SDS011;8419;52.358;9.752;2023-05-10T00:06:52;3.37;;;1.90;;
16612;SDS011;8419;52.358;9.752;2023-05-10T00:09:38;2.67;;;2.00;;
16612;SDS011;8419;52.358;9.752;2023-05-10T00:12:24;4.43;;;2.08;;
16612;SDS011;8419;52.358;9.752;2023-05-10T00:15:11;3.30;;;1.98;;
16612;SDS011;8419;52.358;9.752;2023-05-10T00:17:56;2.12;;;1.77;;
16612;SDS011;8419;52.358;9.752;2023-05-10T00:20:42;3.12;;;1.70;;
16612;SDS011;8419;52.358;9.752;2023-05-10T00:23:29;3.15;;;2.10;;
16612;SDS011;8419;52.358;9.752;2023-05-10T00:26:15;4.20;;;1.95;;
16612;SDS011;8419;52.358;9.752;2023-05-10T00:29:02;2.33;;;1.90;;
16612;SDS011;8419;52.358;9.752;2023-05-10T00:31:47;4.10;;;1.85;;
16612;SDS011;8419;52.358;9.752;2023-05-10T00:34:33;3.58;;;2.22;;
16612;SDS011;8419;52.358;9.752;2023-05-10T00:37:18;2.25;;;2.00;;
16612;SDS011;8419;52.358;9.752;2023-05-10T00:40:05;2.78;;;2.15;;
16612;SDS011;8419;52.358;9.752;2023-05-10T00:42:52;3.17;;;2.05;;
16612;SDS011;8419;52.358;9.752;2023-05-10T00:45:37;2.72;;;2.12;;
16612;SDS011;8419;52.358;9.752;2023-05-10T00:48:25;2.67;;;1.85;;
16612;SDS011;8419;52.358;9.752;2023-05-10T00:51:13;2.20;;;1.90;;
16612;SDS011;8419;52.358;9.752;2023-05-10T00:53:59;4.10;;;2.35;;
16612;SDS011;8419;52.358;9.752;2023-05-10T00:56:44;5.18;;;2.03;;
16612;SDS011;8419;52.358;9.752;2023-05-10T00:59:33;2.72;;;2.28;;
16612;SDS011;8419;52.358;9.752;2023-05-10T01:02:19;3.62;;;2.50;;
16612;SDS011;8419;52.358;9.752;2023-05-10T01:05:05;2.70;;;2.08;;
16612;SDS011;8419;52.358;9.752;2023-05-10T01:07:52;4.50;;;2.40;;
16612;SDS011;8419;52.358;9.752;2023-05-10T01:10:37;2.95;;;2.62;;
16612;SDS011;8419;52.358;9.752;2023-05-10T01:13:26;3.70;;;2.53;;
16612;SDS011;8419;52.358;9.752;2023-05-10T01:16:16;4.32;;;2.28;;
16612;SDS011;8419;52.358;9.752;2023-05-10T01:19:01;2.58;;;2.08;;
16612;SDS011;8419;52.358;9.752;2023-05-10T01:21:55;3.08;;;2.58;;
16612;SDS011;8419;52.358;9.752;2023-05-10T01:24:53;4.80;;;2.53;;
16612;SDS011;8419;52.358;9.752;2023-05-10T01:28:02;4.62;;;2.37;;
16612;SDS011;8419;52.358;9.752;2023-05-10T01:31:17;3.15;;;2.50;;
16612;SDS011;8419;52.358;9.752;2023-05-10T01:34:12;2.62;;;2.40;;
16612;SDS011;8419;52.358;9.752;2023-05-10T01:37:05;5.00;;;2.60;;
16612;SDS011;8419;52.358;9.752;2023-05-10T01:40:00;5.37;;;3.00;;
16612;SDS011;8419;52.358;9.752;2023-05-10T01:42:53;5.03;;;2.75;;
16612;SDS011;8419;52.358;9.752;2023-05-10T01:45:46;3.03;;;2.33;;
16612;SDS011;8419;52.358;9.752;2023-05-10T01:48:46;3.33;;;2.62;;
16612;SDS011;8419;52.358;9.752;2023-05-10T01:51:36;7.12;;;2.78;;
16612;SDS011;8419;52.358;9.752;2023-05-10T01:54:26;4.72;;;2.65;;
16612;SDS011;8419;52.358;9.752;2023-05-10T01:57:13;6.22;;;2.72;;
16612;SDS011;8419;52.358;9.752;2023-05-10T02:00:01;4.40;;;2.90;;
16612;SDS011;8419;52.358;9.752;2023-05-10T02:02:50;4.07;;;3.08;;
16612;SDS011;8419;52.358;9.752;2023-05-10T02:05:38;3.00;;;2.55;;
16612;SDS011;8419;52.358;9.752;2023-05-10T02:08:26;5.55;;;2.80;;
16612;SDS011;8419;52.358;9.752;2023-05-10T02:11:12;3.45;;;3.15;;
16612;SDS011;8419;52.358;9.752;2023-05-10T02:14:00;4.55;;;2.30;;
16612;SDS011;8419;52.358;9.752;2023-05-10T02:16:46;5.40;;;2.72;;
16612;SDS011;8419;52.358;9.752;2023-05-10T02:19:36;5.80;;;3.67;;
16612;SDS011;8419;52.358;9.752;2023-05-10T02:22:25;4.93;;;3.40;;
16612;SDS011;8419;52.358;9.752;2023-05-10T02:25:11;4.68;;;3.42;;
16612;SDS011;8419;52.358;9.752;2023-05-10T02:28:00;4.87;;;3.47;;
16612;SDS011;8419;52.358;9.752;2023-05-10T02:30:48;2.72;;;2.30;;
16612;SDS011;8419;52.358;9.752;2023-05-10T02:33:34;4.80;;;3.55;;
16612;SDS011;8419;52.358;9.752;2023-05-10T02:36:24;5.18;;;3.35;;
16612;SDS011;8419;52.358;9.752;2023-05-10T02:39:11;6.68;;;3.35;;
16612;SDS011;8419;52.358;9.752;2023-05-10T02:41:59;5.37;;;3.35;;
16612;SDS011;8419;52.358;9.752;2023-05-10T02:44:47;6.18;;;3.62;;
16612;SDS011;8419;52.358;9.752;2023-05-10T02:47:34;5.68;;;3.47;;
16612;SDS011;8419;52.358;9.752;2023-05-10T02:50:20;6.93;;;3.22;;
16612;SDS011;8419;52.358;9.752;2023-05-10T02:53:10;3.78;;;3.25;;
16612;SDS011;8419;52.358;9.752;2023-05-10T02:56:00;4.07;;;3.37;;
16612;SDS011;8419;52.358;9.752;2023-05-10T02:58:51;5.90;;;3.47;;
16612;SDS011;8419;52.358;9.752;2023-05-10T03:01:37;4.43;;;3.58;;
16612;SDS011;8419;52.358;9.752;2023-05-10T03:04:23;3.65;;;3.00;;
16612;SDS011;8419;52.358;9.752;2023-05-10T03:07:09;3.87;;;3.10;;
16612;SDS011;8419;52.358;9.752;2023-05-10T03:09:55;4.65;;;3.53;;
16612;SDS011;8419;52.358;9.752;2023-05-10T03:12:51;3.85;;;3.47;;
16612;SDS011;8419;52.358;9.752;2023-05-10T03:15:46;4.25;;;3.33;;
16612;SDS011;8419;52.358;9.752;2023-05-10T03:18:40;3.85;;;3.53;;
16612;SDS011;8419;52.358;9.752;2023-05-10T03:21:31;5.25;;;3.60;;
16612;SDS011;8419;52.358;9.752;2023-05-10T03:24:17;5.32;;;3.47;;
16612;SDS011;8419;52.358;9.752;2023-05-10T03:27:04;4.78;;;3.87;;
16612;SDS011;8419;52.358;9.752;2023-05-10T03:29:52;6.47;;;4.15;;
16612;SDS011;8419;52.358;9.752;2023-05-10T03:32:39;5.22;;;3.65;;
16612;SDS011;8419;52.358;9.752;2023-05-10T03:35:24;5.47;;;3.72;;
16612;SDS011;8419;52.358;9.752;2023-05-10T03:38:10;5.32;;;4.00;;
16612;SDS011;8419;52.358;9.752;2023-05-10T03:40:55;4.78;;;3.85;;
16612;SDS011;8419;52.358;9.752;2023-05-10T03:43:41;7.12;;;3.75;;
16612;SDS011;8419;52.358;9.752;2023-05-10T03:46:27;4.85;;;4.22;;
16612;SDS011;8419;52.358;9.752;2023-05-10T03:49:12;4.75;;;3.95;;
16612;SDS011;8419;52.358;9.752;2023-05-10T03:51:58;5.75;;;4.35;;
16612;SDS011;8419;52.358;9.752;2023-05-10T03:54:43;6.18;;;4.22;;
16612;SDS011;8419;52.358;9.752;2023-05-10T03:57:28;6.10;;;4.18;;
16612;SDS011;8419;52.358;9.752;2023-05-10T04:00:14;6.65;;;4.35;;
16612;SDS011;8419;52.358;9.752;2023-05-10T04:03:01;5.20;;;4.37;;
16612;SDS011;8419;52.358;9.752;2023-05-10T04:05:47;7.57;;;4.50;;
16612;SDS011;8419;52.358;9.752;2023-05-10T04:08:32;7.10;;;4.60;;
16612;SDS011;8419;52.358;9.752;2023-05-10T04:11:18;5.12;;;4.20;;
16612;SDS011;8419;52.358;9.752;2023-05-10T04:14:06;6.37;;;3.83;;
16612;SDS011;8419;52.358;9.752;2023-05-10T04:16:51;4.85;;;4.05;;
16612;SDS011;8419;52.358;9.752;2023-05-10T04:19:39;7.95;;;5.05;;
16612;SDS011;8419;52.358;9.752;2023-05-10T04:22:25;6.30;;;4.12;;
16612;SDS011;8419;52.358;9.752;2023-05-10T04:25:12;5.53;;;4.43;;
16612;SDS011;8419;52.358;9.752;2023-05-10T04:27:58;6.80;;;4.50;;
16612;SDS011;8419;52.358;9.752;2023-05-10T04:30:43;4.62;;;4.07;;
16612;SDS011;8419;52.358;9.752;2023-05-10T04:33:29;6.55;;;4.12;;
16612;SDS011;8419;52.358;9.752;2023-05-10T04:36:15;7.05;;;4.97;;
16612;SDS011;8419;52.358;9.752;2023-05-10T04:39:02;7.37;;;4.07;;
16612;SDS011;8419;52.358;9.752;2023-05-10T04:41:48;6.00;;;4.78;;
16612;SDS011;8419;52.358;9.752;2023-05-10T04:44:33;5.70;;;4.70;;
16612;SDS011;8419;52.358;9.752;2023-05-10T04:47:19;5.78;;;4.47;;
16612;SDS011;8419;52.358;9.752;2023-05-10T04:50:07;6.37;;;4.82;;
16612;SDS011;8419;52.358;9.752;2023-05-10T04:52:57;7.55;;;4.45;;
16612;SDS011;8419;52.358;9.752;2023-05-10T04:55:43;8.90;;;4.62;;
16612;SDS011;8419;52.358;9.752;2023-05-10T04:58:29;5.43;;;4.55;;
16612;SDS011;8419;52.358;9.752;2023-05-10T05:01:15;6.53;;;5.12;;
16612;SDS011;8419;52.358;9.752;2023-05-10T05:04:02;5.80;;;4.80;;
16612;SDS011;8419;52.358;9.752;2023-05-10T05:06:51;5.07;;;4.57;;
16612;SDS011;8419;52.358;9.752;2023-05-10T05:09:36;8.07;;;4.70;;
16612;SDS011;8419;52.358;9.752;2023-05-10T05:12:22;11.23;;;5.47;;
16612;SDS011;8419;52.358;9.752;2023-05-10T05:15:08;9.32;;;6.03;;
16612;SDS011;8419;52.358;9.752;2023-05-10T05:17:55;6.28;;;4.97;;
16612;SDS011;8419;52.358;9.752;2023-05-10T05:20:41;10.85;;;4.72;;
16612;SDS011;8419;52.358;9.752;2023-05-10T05:23:26;5.68;;;4.80;;
16612;SDS011;8419;52.358;9.752;2023-05-10T05:26:12;5.28;;;4.22;;
16612;SDS011;8419;52.358;9.752;2023-05-10T05:28:59;5.30;;;4.43;;
16612;SDS011;8419;52.358;9.752;2023-05-10T05:31:45;6.43;;;4.50;;
16612;SDS011;8419;52.358;9.752;2023-05-10T05:34:32;8.52;;;4.82;;
16612;SDS011;8419;52.358;9.752;2023-05-10T05:37:18;6.95;;;4.78;;
16612;SDS011;8419;52.358;9.752;2023-05-10T05:40:11;5.60;;;4.60;;
16612;SDS011;8419;52.358;9.752;2023-05-10T05:42:57;5.93;;;4.80;;
16612;SDS011;8419;52.358;9.752;2023-05-10T05:45:43;7.53;;;4.12;;
16612;SDS011;8419;52.358;9.752;2023-05-10T05:48:30;6.78;;;5.40;;
16612;SDS011;8419;52.358;9.752;2023-05-10T05:51:16;6.35;;;4.32;;
16612;SDS011;8419;52.358;9.752;2023-05-10T05:54:02;6.62;;;5.43;;
16612;SDS011;8419;52.358;9.752;2023-05-10T05:56:48;7.12;;;5.30;;
16612;SDS011;8419;52.358;9.752;2023-05-10T05:59:33;8.02;;;5.03;;
16612;SDS011;8419;52.358;9.752;2023-05-10T06:02:18;7.55;;;4.97;;
16612;SDS011;8419;52.358;9.752;2023-05-10T06:05:07;4.93;;;4.03;;
16612;SDS011;8419;52.358;9.752;2023-05-10T06:07:54;9.52;;;5.00;;
16612;SDS011;8419;52.358;9.752;2023-05-10T06:10:44;6.12;;;4.70;;
16612;SDS011;8419;52.358;9.752;2023-05-10T06:13:30;6.30;;;5.00;;
16612;SDS011;8419;52.358;9.752;2023-05-10T06:16:17;6.47;;;5.00;;
16612;SDS011;8419;52.358;9.752;2023-05-10T06:19:02;7.65;;;4.60;;
16612;SDS011;8419;52.358;9.752;2023-05-10T06:21:48;7.37;;;5.80;;
16612;SDS011;8419;52.358;9.752;2023-05-10T06:24:34;7.25;;;5.03;;
16612;SDS011;8419;52.358;9.752;2023-05-10T06:27:19;9.73;;;6.57;;
16612;SDS011;8419;52.358;9.752;2023-05-10T06:30:06;10.82;;;5.30;;
16612;SDS011;8419;52.358;9.752;2023-05-10T06:32:57;6.28;;;4.82;;
16612;SDS011;8419;52.358;9.752;2023-05-10T06:35:45;9.68;;;5.78;;
16612;SDS011;8419;52.358;9.752;2023-05-10T06:38:32;9.55;;;6.25;;
16612;SDS011;8419;52.358;9.752;2023-05-10T06:41:18;8.80;;;5.68;;
16612;SDS011;8419;52.358;9.752;2023-05-10T06:44:05;8.48;;;5.18;;
16612;SDS011;8419;52.358;9.752;2023-05-10T06:46:51;14.25;;;9.82;;
16612;SDS011;8419;52.358;9.752;2023-05-10T06:49:38;11.60;;;6.53;;
16612;SDS011;8419;52.358;9.752;2023-05-10T06:52:24;9.25;;;5.53;;
16612;SDS011;8419;52.358;9.752;2023-05-10T06:55:09;10.07;;;5.22;;
16612;SDS011;8419;52.358;9.752;2023-05-10T06:57:55;8.15;;;4.95;;
16612;SDS011;8419;52.358;9.752;2023-05-10T07:00:41;8.27;;;5.75;;
16612;SDS011;8419;52.358;9.752;2023-05-10T07:03:29;7.93;;;5.55;;
16612;SDS011;8419;52.358;9.752;2023-05-10T07:06:15;5.85;;;4.80;;
16612;SDS011;8419;52.358;9.752;2023-05-10T07:09:02;7.62;;;4.95;;
16612;SDS011;8419;52.358;9.752;2023-05-10T07:11:48;7.78;;;5.22;;
16612;SDS011;8419;52.358;9.752;2023-05-10T07:14:36;6.05;;;5.12;;
16612;SDS011;8419;52.358;9.752;2023-05-10T07:17:22;6.90;;;5.07;;
16612;SDS011;8419;52.358;9.752;2023-05-10T07:20:08;7.95;;;4.68;;
16612;SDS011;8419;52.358;9.752;2023-05-10T07:22:55;7.05;;;4.40;;
16612;SDS011;8419;52.358;9.752;2023-05-10T07:25:40;6.43;;;4.87;;
16612;SDS011;8419;52.358;9.752;2023-05-10T07:28:26;5.18;;;4.68;;
16612;SDS011;8419;52.358;9.752;2023-05-10T07:31:12;5.68;;;4.40;;
16612;SDS011;8419;52.358;9.752;2023-05-10T07:33:59;5.57;;;5.03;;
16612;SDS011;8419;52.358;9.752;2023-05-10T07:36:44;5.50;;;4.35;;
16612;SDS011;8419;52.358;9.752;2023-05-10T07:39:30;5.30;;;4.70;;
16612;SDS011;8419;52.358;9.752;2023-05-10T07:42:18;6.07;;;4.55;;
16612;SDS011;8419;52.358;9.752;2023-05-10T07:45:07;7.00;;;4.72;;
16612;SDS011;8419;52.358;9.752;2023-05-10T07:47:54;6.43;;;4.93;;
16612;SDS011;8419;52.358;9.752;2023-05-10T07:50:39;7.03;;;5.20;;
16612;SDS011;8419;52.358;9.752;2023-05-10T07:53:25;4.53;;;3.95;;
16612;SDS011;8419;52.358;9.752;2023-05-10T07:56:22;5.40;;;4.82;;
16612;SDS011;8419;52.358;9.752;2023-05-10T07:59:14;8.93;;;4.87;;
16612;SDS011;8419;52.358;9.752;2023-05-10T08:02:00;5.47;;;4.60;;
16612;SDS011;8419;52.358;9.752;2023-05-10T08:04:46;5.65;;;4.22;;
16612;SDS011;8419;52.358;9.752;2023-05-10T08:07:31;4.90;;;3.78;;
16612;SDS011;8419;52.358;9.752;2023-05-10T08:10:18;4.55;;;4.00;;
16612;SDS011;8419;52.358;9.752;2023-05-10T08:13:04;3.70;;;3.17;;
16612;SDS011;8419;52.358;9.752;2023-05-10T08:15:51;3.72;;;2.70;;
16612;SDS011;8419;52.358;9.752;2023-05-10T08:18:37;2.67;;;2.22;;
16612;SDS011;8419;52.358;9.752;2023-05-10T08:21:23;2.70;;;1.98;;
16612;SDS011;8419;52.358;9.752;2023-05-10T08:24:11;2.87;;;1.60;;
16612;SDS011;8419;52.358;9.752;2023-05-10T08:26:57;1.30;;;1.20;;
16612;SDS011;8419;52.358;9.752;2023-05-10T08:29:43;1.25;;;1.10;;
16612;SDS011;8419;52.358;9.752;2023-05-10T08:32:29;0.80;;;0.80;;
16612;SDS011;8419;52.358;9.752;2023-05-10T08:35:15;1.67;;;0.90;;
16612;SDS011;8419;52.358;9.752;2023-05-10T08:38:01;1.08;;;0.93;;
16612;SDS011;8419;52.358;9.752;2023-05-10T08:40:46;1.10;;;0.88;;
16612;SDS011;8419;52.358;9.752;2023-05-10T08:43:41;1.10;;;1.00;;
16612;SDS011;8419;52.358;9.752;2023-05-10T08:46:30;1.20;;;1.10;;
16612;SDS011;8419;52.358;9.752;2023-05-10T08:49:19;2.03;;;1.25;;
16612;SDS011;8419;52.358;9.752;2023-05-10T08:52:06;1.50;;;1.40;;
16612;SDS011;8419;52.358;9.752;2023-05-10T08:54:52;1.23;;;1.12;;
16612;SDS011;8419;52.358;9.752;2023-05-10T08:57:38;2.78;;;1.60;;
16612;SDS011;8419;52.358;9.752;2023-05-10T09:00:24;1.30;;;1.20;;
16612;SDS011;8419;52.358;9.752;2023-05-10T09:03:10;2.12;;;1.92;;
16612;SDS011;8419;52.358;9.752;2023-05-10T09:05:57;0.88;;;0.80;;
16612;SDS011;8419;52.358;9.752;2023-05-10T09:08:45;1.58;;;1.48;;
16612;SDS011;8419;52.358;9.752;2023-05-10T09:11:32;1.67;;;1.55;;
16612;SDS011;8419;52.358;9.752;2023-05-10T09:14:17;1.33;;;1.15;;
16612;SDS011;8419;52.358;9.752;2023-05-10T09:17:04;1.75;;;1.65;;
16612;SDS011;8419;52.358;9.752;2023-05-10T09:19:50;1.05;;;1.05;;
16612;SDS011;8419;52.358;9.752;2023-05-10T09:22:43;2.35;;;1.17;;
16612;SDS011;8419;52.358;9.752;2023-05-10T09:25:29;2.97;;;2.00;;
16612;SDS011;8419;52.358;9.752;2023-05-10T09:28:17;1.98;;;1.77;;
16612;SDS011;8419;52.358;9.752;2023-05-10T09:31:03;2.10;;;1.50;;
16612;SDS011;8419;52.358;9.752;2023-05-10T09:33:49;2.37;;;2.00;;
16612;SDS011;8419;52.358;9.752;2023-05-10T09:36:49;1.40;;;1.30;;
16612;SDS011;8419;52.358;9.752;2023-05-10T09:39:37;2.03;;;1.80;;
16612;SDS011;8419;52.358;9.752;2023-05-10T09:42:23;2.10;;;1.90;;
16612;SDS011;8419;52.358;9.752;2023-05-10T09:45:09;1.67;;;1.55;;
16612;SDS011;8419;52.358;9.752;2023-05-10T09:47:55;3.15;;;1.70;;
16612;SDS011;8419;52.358;9.752;2023-05-10T09:50:41;2.83;;;1.60;;
16612;SDS011;8419;52.358;9.752;2023-05-10T09:53:27;3.67;;;1.98;;
16612;SDS011;8419;52.358;9.752;2023-05-10T09:56:13;2.08;;;1.75;;
16612;SDS011;8419;52.358;9.752;2023-05-10T09:59:19;2.92;;;2.03;;
16612;SDS011;8419;52.358;9.752;2023-05-10T10:02:05;3.05;;;1.60;;
16612;SDS011;8419;52.358;9.752;2023-05-10T10:04:51;1.87;;;1.67;;
16612;SDS011;8419;52.358;9.752;2023-05-10T10:07:38;2.22;;;1.83;;
16612;SDS011;8419;52.358;9.752;2023-05-10T10:10:32;2.33;;;1.95;;
16612;SDS011;8419;52.358;9.752;2023-05-10T10:13:19;2.15;;;1.95;;
16612;SDS011;8419;52.358;9.752;2023-05-10T10:16:05;2.83;;;2.00;;
16612;SDS011;8419;52.358;9.752;2023-05-10T10:18:52;2.83;;;2.03;;
16612;SDS011;8419;52.358;9.752;2023-05-10T10:21:38;2.72;;;1.90;;
16612;SDS011;8419;52.358;9.752;2023-05-10T10:24:24;5.00;;;2.30;;
16612;SDS011;8419;52.358;9.752;2023-05-10T10:27:13;3.33;;;1.80;;
16612;SDS011;8419;52.358;9.752;2023-05-10T10:30:11;3.17;;;2.17;;
16612;SDS011;8419;52.358;9.752;2023-05-10T10:33:13;4.45;;;3.12;;
16612;SDS011;8419;52.358;9.752;2023-05-10T10:36:14;4.28;;;2.17;;
16612;SDS011;8419;52.358;9.752;2023-05-10T10:39:00;3.55;;;2.22;;
16612;SDS011;8419;52.358;9.752;2023-05-10T10:41:51;3.62;;;2.00;;
16612;SDS011;8419;52.358;9.752;2023-05-10T10:44:44;1.75;;;1.62;;
16612;SDS011;8419;52.358;9.752;2023-05-10T10:47:30;2.72;;;1.80;;
16612;SDS011;8419;52.358;9.752;2023-05-10T10:50:17;2.97;;;2.20;;
16612;SDS011;8419;52.358;9.752;2023-05-10T10:53:13;1.85;;;1.70;;
16612;SDS011;8419;52.358;9.752;2023-05-10T10:56:07;2.40;;;2.00;;
16612;SDS011;8419;52.358;9.752;2023-05-10T10:58:56;1.95;;;1.75;;
16612;SDS011;8419;52.358;9.752;2023-05-10T11:01:45;2.83;;;1.98;;
16612;SDS011;8419;52.358;9.752;2023-05-10T11:04:43;5.60;;;1.87;;
16612;SDS011;8419;52.358;9.752;2023-05-10T11:07:30;2.15;;;1.87;;
16612;SDS011;8419;52.358;9.752;2023-05-10T11:10:19;3.40;;;2.17;;
16612;SDS011;8419;52.358;9.752;2023-05-10T11:13:05;2.55;;;2.05;;
16612;SDS011;8419;52.358;9.752;2023-05-10T11:15:54;3.28;;;1.90;;
16612;SDS011;8419;52.358;9.752;2023-05-10T11:18:41;5.03;;;2.92;;
16612;SDS011;8419;52.358;9.752;2023-05-10T11:21:44;3.45;;;2.15;;
16612;SDS011;8419;52.358;9.752;2023-05-10T11:24:30;3.85;;;2.40;;
16612;SDS011;8419;52.358;9.752;2023-05-10T11:27:17;4.30;;;2.35;;
16612;SDS011;8419;52.358;9.752;2023-05-10T11:30:06;2.92;;;1.87;;
16612;SDS011;8419;52.358;9.752;2023-05-10T11:32:56;4.22;;;2.53;;
16612;SDS011;8419;52.358;9.752;2023-05-10T11:35:41;4.03;;;2.42;;
16612;SDS011;8419;52.358;9.752;2023-05-10T11:38:27;3.97;;;2.00;;
16612;SDS011;8419;52.358;9.752;2023-05-10T11:41:12;4.30;;;2.37;;
16612;SDS011;8419;52.358;9.752;2023-05-10T11:44:01;3.10;;;2.37;;
16612;SDS011;8419;52.358;9.752;2023-05-10T11:46:49;3.05;;;2.25;;
16612;SDS011;8419;52.358;9.752;2023-05-10T11:49:34;3.45;;;2.47;;
16612;SDS011;8419;52.358;9.752;2023-05-10T11:52:20;2.53;;;2.33;;
16612;SDS011;8419;52.358;9.752;2023-05-10T11:55:06;4.47;;;3.20;;
16612;SDS011;8419;52.358;9.752;2023-05-10T11:57:52;4.57;;;2.47;;
16612;SDS011;8419;52.358;9.752;2023-05-10T12:00:42;3.97;;;2.70;;
16612;SDS011;8419;52.358;9.752;2023-05-10T12:03:28;5.40;;;2.42;;
16612;SDS011;8419;52.358;9.752;2023-05-10T12:06:16;4.80;;;3.65;;
16612;SDS011;8419;52.358;9.752;2023-05-10T12:09:05;2.85;;;2.45;;
16612;SDS011;8419;52.358;9.752;2023-05-10T12:11:55;2.97;;;2.67;;
16612;SDS011;8419;52.358;9.752;2023-05-10T12:14:49;4.20;;;2.50;;
16612;SDS011;8419;52.358;9.752;2023-05-10T12:17:36;4.55;;;2.92;;
16612;SDS011;8419;52.358;9.752;2023-05-10T12:20:26;3.72;;;2.80;;
16612;SDS011;8419;52.358;9.752;2023-05-10T12:23:12;4.28;;;2.75;;
16612;SDS011;8419;52.358;9.752;2023-05-10T12:26:02;4.60;;;2.70;;
16612;SDS011;8419;52.358;9.752;2023-05-10T12:28:48;4.15;;;2.40;;
16612;SDS011;8419;52.358;9.752;2023-05-10T12:31:43;3.47;;;2.90;;
16612;SDS011;8419;52.358;9.752;2023-05-10T12:34:35;5.03;;;2.80;;
16612;SDS011;8419;52.358;9.752;2023-05-10T12:37:25;4.45;;;2.78;;
16612;SDS011;8419;52.358;9.752;2023-05-10T12:40:14;4.50;;;3.00;;
16612;SDS011;8419;52.358;9.752;2023-05-10T12:42:59;3.80;;;3.03;;
16612;SDS011;8419;52.358;9.752;2023-05-10T12:45:45;3.72;;;2.80;;
16612;SDS011;8419;52.358;9.752;2023-05-10T12:48:32;3.28;;;2.50;;
16612;SDS011;8419;52.358;9.752;2023-05-10T12:51:21;4.15;;;2.50;;
16612;SDS011;8419;52.358;9.752;2023-05-10T12:54:09;3.78;;;2.62;;
16612;SDS011;8419;52.358;9.752;2023-05-10T12:56:54;4.12;;;3.08;;
16612;SDS011;8419;52.358;9.752;2023-05-10T12:59:39;4.40;;;3.08;;
16612;SDS011;8419;52.358;9.752;2023-05-10T13:02:28;4.22;;;2.35;;
16612;SDS011;8419;52.358;9.752;2023-05-10T13:05:14;4.43;;;2.67;;
16612;SDS011;8419;52.358;9.752;2023-05-10T13:08:04;2.92;;;2.17;;
16612;SDS011;8419;52.358;9.752;2023-05-10T13:10:49;5.35;;;2.70;;
16612;SDS011;8419;52.358;9.752;2023-05-10T13:13:36;2.80;;;2.47;;
16612;SDS011;8419;52.358;9.752;2023-05-10T13:16:23;4.22;;;2.40;;
16612;SDS011;8419;52.358;9.752;2023-05-10T13:19:08;3.70;;;2.80;;
16612;SDS011;8419;52.358;9.752;2023-05-10T13:21:55;3.33;;;2.65;;
16612;SDS011;8419;52.358;9.752;2023-05-10T13:24:42;2.92;;;2.40;;
16612;SDS011;8419;52.358;9.752;2023-05-10T13:27:27;3.33;;;2.60;;
16612;SDS011;8419;52.358;9.752;2023-05-10T13:30:21;3.58;;;2.12;;
16612;SDS011;8419;52.358;9.752;2023-05-10T13:33:08;3.17;;;2.75;;
16612;SDS011;8419;52.358;9.752;2023-05-10T13:35:53;3.05;;;2.00;;
16612;SDS011;8419;52.358;9.752;2023-05-10T13:38:39;4.05;;;2.42;;
16612;SDS011;8419;52.358;9.752;2023-05-10T13:41:25;4.15;;;2.42;;
16612;SDS011;8419;52.358;9.752;2023-05-10T13:44:12;7.18;;;2.87;;
16612;SDS011;8419;52.358;9.752;2023-05-10T13:46:58;4.07;;;2.72;;
16612;SDS011;8419;52.358;9.752;2023-05-10T13:49:48;3.97;;;2.80;;
16612;SDS011;8419;52.358;9.752;2023-05-10T13:52:34;3.65;;;2.97;;
16612;SDS011;8419;52.358;9.752;2023-05-10T13:55:20;4.22;;;2.60;;
16612;SDS011;8419;52.358;9.752;2023-05-10T13:58:05;3.97;;;2.78;;
16612;SDS011;8419;52.358;9.752;2023-05-10T14:00:51;6.65;;;3.53;;
16612;SDS011;8419;52.358;9.752;2023-05-10T14:03:36;7.72;;;3.10;;
16612;SDS011;8419;52.358;9.752;2023-05-10T14:06:22;5.82;;;3.10;;
16612;SDS011;8419;52.358;9.752;2023-05-10T14:09:07;4.43;;;2.70;;
16612;SDS011;8419;52.358;9.752;2023-05-10T14:11:55;5.35;;;3.00;;
16612;SDS011;8419;52.358;9.752;2023-05-10T14:14:40;4.90;;;2.90;;
16612;SDS011;8419;52.358;9.752;2023-05-10T14:17:28;3.00;;;2.70;;
16612;SDS011;8419;52.358;9.752;2023-05-10T14:20:13;4.72;;;2.87;;
16612;SDS011;8419;52.358;9.752;2023-05-10T14:22:59;4.85;;;3.37;;
16612;SDS011;8419;52.358;9.752;2023-05-10T14:25:44;5.55;;;3.00;;
16612;SDS011;8419;52.358;9.752;2023-05-10T14:28:30;8.38;;;3.33;;
16612;SDS011;8419;52.358;9.752;2023-05-10T14:31:15;6.53;;;4.57;;
16612;SDS011;8419;52.358;9.752;2023-05-10T14:34:00;6.87;;;4.85;;
16612;SDS011;8419;52.358;9.752;2023-05-10T14:36:46;10.30;;;5.43;;
16612;SDS011;8419;52.358;9.752;2023-05-10T14:39:31;7.35;;;4.60;;
16612;SDS011;8419;52.358;9.752;2023-05-10T14:42:18;7.12;;;4.45;;
16612;SDS011;8419;52.358;9.752;2023-05-10T14:45:05;9.90;;;5.25;;
16612;SDS011;8419;52.358;9.752;2023-05-10T14:47:52;10.82;;;6.40;;
16612;SDS011;8419;52.358;9.752;2023-05-10T14:50:38;9.90;;;5.82;;
16612;SDS011;8419;52.358;9.752;2023-05-10T14:53:23;11.05;;;6.18;;
16612;SDS011;8419;52.358;9.752;2023-05-10T14:56:08;8.43;;;6.28;;
16612;SDS011;8419;52.358;9.752;2023-05-10T14:58:54;7.50;;;5.43;;
16612;SDS011;8419;52.358;9.752;2023-05-10T15:01:39;8.63;;;5.43;;
16612;SDS011;8419;52.358;9.752;2023-05-10T15:04:26;7.15;;;5.87;;
16612;SDS011;8419;52.358;9.752;2023-05-10T15:07:13;9.65;;;6.12;;
16612;SDS011;8419;52.358;9.752;2023-05-10T15:10:00;8.73;;;5.95;;
16612;SDS011;8419;52.358;9.752;2023-05-10T15:12:46;8.40;;;5.82;;
16612;SDS011;8419;52.358;9.752;2023-05-10T15:15:32;10.23;;;6.18;;
16612;SDS011;8419;52.358;9.752;2023-05-10T15:18:17;13.27;;;7.65;;
16612;SDS011;8419;52.358;9.752;2023-05-10T15:21:02;11.23;;;6.78;;
16612;SDS011;8419;52.358;9.752;2023-05-10T15:23:48;11.30;;;6.95;;
16612;SDS011;8419;52.358;9.752;2023-05-10T15:26:36;16.60;;;9.43;;
16612;SDS011;8419;52.358;9.752;2023-05-10T15:29:22;10.10;;;7.37;;
16612;SDS011;8419;52.358;9.752;2023-05-10T15:32:08;10.18;;;7.07;;
16612;SDS011;8419;52.358;9.752;2023-05-10T15:34:53;11.10;;;7.20;;
16612;SDS011;8419;52.358;9.752;2023-05-10T15:37:38;11.40;;;7.00;;
16612;SDS011;8419;52.358;9.752;2023-05-10T15:40:25;12.73;;;7.43;;
16612;SDS011;8419;52.358;9.752;2023-05-10T15:43:11;11.32;;;6.72;;
16612;SDS011;8419;52.358;9.752;2023-05-10T15:45:57;11.02;;;6.93;;
16612;SDS011;8419;52.358;9.752;2023-05-10T15:48:43;13.90;;;8.05;;
16612;SDS011;8419;52.358;9.752;2023-05-10T15:51:31;10.73;;;7.60;;
16612;SDS011;8419;52.358;9.752;2023-05-10T15:54:18;11.45;;;7.57;;
16612;SDS011;8419;52.358;9.752;2023-05-10T15:57:03;14.43;;;7.82;;
16612;SDS011;8419;52.358;9.752;2023-05-10T15:59:49;13.57;;;8.45;;
16612;SDS011;8419;52.358;9.752;2023-05-10T16:02:44;12.45;;;7.87;;
16612;SDS011;8419;52.358;9.752;2023-05-10T16:05:30;16.62;;;8.40;;
16612;SDS011;8419;52.358;9.752;2023-05-10T16:08:16;15.52;;;7.68;;
16612;SDS011;8419;52.358;9.752;2023-05-10T16:11:02;14.77;;;9.02;;
16612;SDS011;8419;52.358;9.752;2023-05-10T16:13:48;12.63;;;7.87;;
16612;SDS011;8419;52.358;9.752;2023-05-10T16:16:34;14.65;;;8.23;;
16612;SDS011;8419;52.358;9.752;2023-05-10T16:19:20;15.68;;;8.60;;
16612;SDS011;8419;52.358;9.752;2023-05-10T16:22:05;16.48;;;8.57;;
16612;SDS011;8419;52.358;9.752;2023-05-10T16:24:51;15.07;;;8.98;;
16612;SDS011;8419;52.358;9.752;2023-05-10T16:27:36;14.80;;;9.50;;
16612;SDS011;8419;52.358;9.752;2023-05-10T16:30:26;15.98;;;10.00;;
16612;SDS011;8419;52.358;9.752;2023-05-10T16:33:15;14.50;;;9.10;;
16612;SDS011;8419;52.358;9.752;2023-05-10T16:36:00;14.38;;;8.73;;
16612;SDS011;8419;52.358;9.752;2023-05-10T16:38:46;14.98;;;9.05;;
16612;SDS011;8419;52.358;9.752;2023-05-10T16:41:32;18.02;;;11.20;;
16612;SDS011;8419;52.358;9.752;2023-05-10T16:44:20;17.85;;;11.15;;
16612;SDS011;8419;52.358;9.752;2023-05-10T16:47:07;18.25;;;10.15;;
16612;SDS011;8419;52.358;9.752;2023-05-10T16:49:53;13.88;;;9.07;;
16612;SDS011;8419;52.358;9.752;2023-05-10T16:52:39;16.95;;;10.27;;
16612;SDS011;8419;52.358;9.752;2023-05-10T16:55:24;14.57;;;9.13;;
16612;SDS011;8419;52.358;9.752;2023-05-10T16:58:10;15.90;;;9.50;;
16612;SDS011;8419;52.358;9.752;2023-05-10T17:00:55;17.52;;;10.93;;
16612;SDS011;8419;52.358;9.752;2023-05-10T17:03:41;19.73;;;10.30;;